• Join FlightAware (Why Join?)
  • Login
  • US Flag 
03:41AM EST


 

Airport Tracker/Info


-or-


 

Live Flight TrackerFlight Track Log ✈ N350BS ✈ 16-Jul-2013 ✈ KVBT - KCVC

Flight Track Log - Related Links

Times and Time Zones

All times are in EDT time to prevent confusion due to time zone crossing. See the N350BS flight status page for this flight to view local times or setup timezone preferences in your user account.

Time Position Orientation Groundspeed Altitude Reporting Facility
EDT Latitude Longitude Course Direction KTS MPH feet Rate Location/Type
04:49PM 36.3810 -94.0800 103° East 167 192 9,400  Level FlightAware
04:49PM 36.3770 -94.0570 102° East 167 192 9,400 1,980 Level FlightAware
04:50PM 36.3680 -94.0120 104° East 172 198 11,900 2,040 Climbing FlightAware
04:50PM 36.3620 -93.9800 103° East 172 198 12,300 1,800 Climbing FlightAware
04:51PM 36.3490 -93.9290 108° East 182 209 14,500 1,620 Climbing FlightAware
04:52PM 36.3370 -93.8830 108° East 221 254 14,800 420 Climbing FlightAware
04:53PM 36.3220 -93.8320 110° East 235 270 15,100 900 Climbing FlightAware
04:53PM 36.3070 -93.7900 114° Southeast 220 253 16,000 1,500 Climbing FlightAware
04:54PM 36.2910 -93.7400 112° Southeast 210 242 17,100 1,500 Climbing FlightAware
04:55PM 36.2800 -93.6930 106° East 206 237 18,100 1,440 Climbing FlightAware
04:55PM 36.2700 -93.6480 105° East 199 229 19,100 1,320 Climbing FlightAware
04:56PM 36.2620 -93.6030 102° East 202 232 19,900 1,200 Climbing FlightAware
04:57PM 36.2530 -93.5530 103° East 203 234 20,800 780 Climbing FlightAware
04:57PM 36.2450 -93.5070 102° East 228 262 21,000 300 Climbing FlightAware
04:58PM 36.2340 -93.4470 103° East 236 272 21,300 660 Climbing FlightAware
04:59PM 36.2240 -93.3940 103° East 227 261 22,000 960 Climbing FlightAware
05:00PM 36.2140 -93.3420 103° East 217 250 22,700 900 Climbing FlightAware
05:00PM 36.2030 -93.2890 104° East 208 239 23,400 960 Climbing FlightAware
05:01PM 36.1940 -93.2430 104° East 205 236 24,100 840 Climbing FlightAware
05:02PM 36.1830 -93.1910 105° East 216 249 24,600 600 Climbing FlightAware
05:02PM 36.1730 -93.1440 105° East 221 254 25,000 240 Climbing FlightAware
05:03PM 36.1610 -93.0870 105° East 243 280 25,000  Level FlightAware
05:04PM 36.1500 -93.0310 104° East 254 292 25,000  Level FlightAware
05:04PM 36.1390 -92.9740 103° East 257 296 25,000  Level FlightAware
05:05PM 36.1280 -92.9210 104° East 258 297 25,000  Level FlightAware
05:06PM 36.1170 -92.8650 104° East 260 299 25,000  Level FlightAware
05:06PM 36.1050 -92.8050 104° East 257 296 25,000  Level FlightAware
05:07PM 36.0950 -92.7560 104° East 256 295 25,000  Level FlightAware
05:08PM 36.0820 -92.6940 105° East 257 296 25,000  Level FlightAware
05:08PM 36.0720 -92.6440 104° East 257 296 25,000  Level FlightAware
05:09PM 36.0590 -92.5790 104° East 258 297 25,000  Level FlightAware
05:10PM 36.0460 -92.5190 105° East 258 297 25,000  Level FlightAware
05:10PM 36.0350 -92.4620 103° East 257 296 25,000  Level FlightAware
05:11PM 36.0190 -92.3870 105° East 259 298 25,000  Level FlightAware
05:12PM 35.9990 -92.2880 104° East 259 298 25,000  Level FlightAware
05:13PM 35.9850 -92.2220 105° East 258 297 25,000  Level FlightAware
05:14PM 35.9730 -92.1660 105° East 259 298 25,000  Level FlightAware
05:14PM 35.9640 -92.1220 104° East 259 298 25,000  Level FlightAware
05:15PM 35.9490 -92.0470 104° East 260 299 25,000 180 Level FlightAware
05:16PM 35.9380 -91.9970 105° East 247 284 25,300 600 Climbing FlightAware
05:17PM 35.9250 -91.9370 105° East 235 270 25,900 360 Climbing FlightAware
05:17PM 35.9160 -91.8930 104° East 235 270 25,900 660 Level FlightAware
05:18PM 35.9040 -91.8360 105° East 225 259 26,800 720 Climbing FlightAware
05:19PM 35.8920 -91.7780 104° East 235 270 27,000 120 Climbing FlightAware
05:19PM 35.8810 -91.7280 105° East 246 283 27,000  Level FlightAware
05:20PM 35.8680 -91.6660 104° East 251 289 27,000  Level FlightAware
05:21PM 35.8570 -91.6080 103° East 251 289 27,000  Level FlightAware
05:22PM 35.8370 -91.5200 106° East 261 300 27,000  Level FlightAware
05:22PM 35.8250 -91.4640 105° East 262 302 27,000  Level FlightAware
05:23PM 35.8140 -91.4120 105° East 262 302 27,000  Level FlightAware
05:24PM 35.8050 -91.3670 104° East 262 302 27,000  Level FlightAware
05:24PM 35.7930 -91.3070 104° East 262 302 27,000  Level FlightAware
05:25PM 35.7840 -91.2620 104° East 262 302 27,000  Level FlightAware
05:26PM 35.7720 -91.2030 104° East 262 302 27,000  Level FlightAware
05:27PM 35.7420 -91.0800 107° East 259 298 27,000  Level FlightAware
05:28PM 35.7300 -91.0250 105° East 259 298 27,000  Level FlightAware
05:28PM 35.7210 -90.9810 104° East 259 298 27,000  Level FlightAware
05:29PM 35.7030 -90.8910 104° East 259 298 27,000  Level FlightAware
05:31PM 35.6700 -90.7583 104° East 259 298 27,000  Level Memphis Center
05:32PM 35.6536 -90.6714 103° East 259 298 27,000  Level Memphis Center
05:33PM 35.6350 -90.5844 105° East 259 298 27,000  Level Memphis Center
05:34PM 35.6142 -90.4975 106° East 259 298 27,000  Level Memphis Center
05:35PM 35.5936 -90.4081 106° East 259 298 27,000  Level Memphis Center
05:36PM 35.5767 -90.3189 103° East 259 298 27,000  Level Memphis Center
05:37PM 35.5558 -90.2369 107° East 254 292 27,000  Level Memphis Center
05:38PM 35.5369 -90.1503 105° East 259 298 27,000  Level Memphis Center
05:39PM 35.5181 -90.0664 105° East 259 298 27,000  Level Memphis Center
05:40PM 35.4992 -89.9822 105° East 259 298 27,000  Level Memphis Center
05:41PM 35.4800 -89.8981 106° East 259 298 27,000  Level Memphis Center
05:42PM 35.4608 -89.8142 106° East 259 298 27,000  Level Memphis Center
05:43PM 35.4417 -89.7378 107° East 259 298 27,000  Level Memphis Center
05:44PM 35.4225 -89.6539 106° East 259 298 27,000  Level Memphis Center
05:45PM 35.4033 -89.5725 106° East 259 298 27,000  Level Memphis Center
05:46PM 35.3861 -89.4886 104° East 254 292 27,000  Level Memphis Center
05:47PM 35.3644 -89.4047 108° East 254 292 27,000  Level Memphis Center
05:48PM 35.3431 -89.3133 106° East 254 292 27,000  Level Memphis Center
05:49PM 35.3233 -89.2297 106° East 254 292 27,000  Level Memphis Center
05:50PM 35.3039 -89.1461 106° East 254 292 27,000  Level Memphis Center
05:51PM 35.2822 -89.0625 108° East 259 298 27,000  Level Memphis Center
05:52PM 35.2625 -88.9786 106° East 259 298 27,000  Level Memphis Center
05:53PM 35.2428 -88.8928 106° East 259 298 27,000  Level Memphis Center
05:54PM 35.2231 -88.8117 107° East 259 298 27,000  Level Memphis Center
05:55PM 35.2053 -88.7383 107° East 254 292 27,000  Level Memphis Center
05:56PM 35.1856 -88.6547 106° East 254 292 27,000  Level Memphis Center
05:57PM 35.1633 -88.5714 108° East 254 292 27,000  Level Memphis Center
05:58PM 35.1456 -88.4906 105° East 254 292 27,000  Level Memphis Center
05:59PM 35.1233 -88.4100 109° East 247 284 27,000  Level Memphis Center
06:00PM 35.1033 -88.3317 107° East 242 278 27,000  Level Memphis Center
06:01PM 35.0853 -88.2483 105° East 242 278 27,000  Level Memphis Center
06:02PM 35.0608 -88.1525 107° East 251 289 27,000  Level Memphis Center
06:03PM 35.0403 -88.0694 107° East 259 298 27,000  Level Memphis Center
06:04PM 35.0200 -87.9864 107° East 257 296 27,000  Level Memphis Center
06:05PM 34.9978 -87.9058 109° East 252 290 27,000  Level Memphis Center
06:06PM 34.9772 -87.8228 107° East 252 290 27,000  Level Memphis Center
06:07PM 34.9611 -87.7522 106° East 246 283 27,000  Level Memphis Center
06:08PM 34.9386 -87.6719 109° East 251 289 27,000  Level Memphis Center
06:09PM 34.9158 -87.5864 108° East 251 289 27,000  Level Memphis Center
06:10PM 34.8972 -87.5036 105° East 251 289 27,000  Level Memphis Center
06:11PM 34.8767 -87.4208 107° East 251 289 27,000  Level Memphis Center
06:13PM 34.8356 -87.2475 106° East 259 298 27,000  Level Atlanta Center
06:14PM 34.8147 -87.1633 107° East 259 298 27,000  Level Atlanta Center
06:15PM 34.7919 -87.0789 108° East 259 298 27,000  Level Atlanta Center
06:16PM 34.7708 -86.9972 107° East 254 292 27,000  Level Atlanta Center
06:17PM 34.7500 -86.9131 107° East 254 292 27,000  Level Atlanta Center
06:18PM 34.7267 -86.8339 110° East 249 287 27,000 -120 Level Atlanta Center
06:19PM 34.7056 -86.7525 107° East 249 287 26,800 -540 Descending Atlanta Center
06:20PM 34.6847 -86.6633 106° East 256 295 26,000 -840 Descending Atlanta Center
06:21PM 34.6594 -86.5717 109° East 263 303 25,200 -300 Descending Atlanta Center
06:27PM 34.5210 -86.0540 109° East 256 295 23,900 -240 Descending FlightAware
06:27PM 34.5090 -86.0100 108° East 256 295 23,900  Level FlightAware
06:28PM 34.4940 -85.9530 108° East 256 295 23,900  Level FlightAware
06:29PM 34.4830 -85.9120 108° East 256 295 23,900  Level FlightAware
06:30PM 34.4680 -85.8560 108° East 256 295 23,900  Level FlightAware
06:30PM 34.4560 -85.8130 109° East 256 295 23,900 -2,880 Level FlightAware
06:32PM 34.3981 -85.5969 109° East 291 335 17,900 -2,820 Descending Atlanta Center
06:33PM 34.3742 -85.5061 108° East 286 329 16,900 -1,140 Descending Atlanta Center
06:34PM 34.3500 -85.4175 108° East 286 329 15,700 -1,260 Descending Atlanta Center
06:35PM 34.3239 -85.3292 110° East 286 329 14,400 -1,440 Descending Atlanta Center
06:40PM 34.1910 -84.8490 110° East 258 297 6,700 -1,320 Descending FlightAware
06:41PM 34.1820 -84.8120 106° East 248 285 6,700  Level FlightAware
06:41PM 34.1730 -84.7740 106° East 244 281 6,700  Level FlightAware
06:42PM 34.1630 -84.7370 108° East 242 278 6,700  Level FlightAware
06:42PM 34.1570 -84.7110 106° East 242 278 6,700  Level FlightAware
06:42PM 34.1470 -84.6740 108° East 241 277 6,700  Level FlightAware
06:43PM 34.1440 -84.6600 105° East 241 277 6,700  Level FlightAware
06:43PM 34.1350 -84.6230 106° East 240 276 6,700  Level FlightAware
06:43PM 34.1290 -84.6020 109° East 239 275 6,700  Level FlightAware
06:44PM 34.1240 -84.5800 105° East 238 274 6,700  Level FlightAware
06:44PM 34.1120 -84.5310 106° East 240 276 6,700  Level FlightAware
06:45PM 34.1030 -84.4950 107° East 241 277 6,700  Level FlightAware
06:45PM 34.0990 -84.4800 108° East 241 277 6,700  Level FlightAware
06:45PM 34.0900 -84.4420 106° East 241 277 6,700  Level FlightAware
06:46PM 34.0810 -84.4070 107° East 240 276 6,700  Level FlightAware
06:46PM 34.0760 -84.3870 107° East 239 275 6,700  Level FlightAware
06:46PM 34.0720 -84.3710 107° East 239 275 6,700  Level FlightAware
06:47PM 34.0640 -84.3370 106° East 240 276 6,700  Level FlightAware
06:47PM 34.0570 -84.3060 105° East 240 276 6,700  Level FlightAware
06:48PM 34.0400 -84.2750 123° Southeast 242 278 6,700  Level FlightAware
06:48PM 34.0300 -84.2640 138° Southeast 242 278 6,700  Level FlightAware
06:48PM 34.0070 -84.2390 138° Southeast 241 277 6,700 -360 Level FlightAware
06:49PM 33.9840 -84.2130 137° Southeast 244 281 6,400 -660 Descending FlightAware
06:49PM 33.9600 -84.1880 139° Southeast 245 282 6,100 -720 Descending FlightAware
06:50PM 33.9370 -84.1640 139° Southeast 245 282 5,800 -840 Descending FlightAware
06:50PM 33.9210 -84.1470 139° Southeast 237 273 5,500 -960 Descending FlightAware
06:50PM 33.9000 -84.1260 140° Southeast 232 267 5,100 -960 Descending FlightAware
06:51PM 33.8790 -84.1030 138° Southeast 233 268 4,700 -960 Descending FlightAware
06:51PM 33.8530 -84.0770 140° Southeast 234 269 4,200 -900 Descending FlightAware
06:52PM 33.8440 -84.0670 137° Southeast 234 269 4,100 -900 Descending FlightAware
06:52PM 33.8180 -84.0420 141° Southeast 233 268 3,600 -960 Descending FlightAware
06:53PM 33.7950 -84.0210 143° Southeast 232 267 3,200 -900 Descending FlightAware
06:53PM 33.7700 -83.9980 143° Southeast 226 260 2,800 -840 Descending FlightAware
06:53PM 33.7640 -83.9930 145° Southeast 223 257 2,700 -180 Descending FlightAware
06:54PM 33.7390 -83.9700 143° Southeast 212 244 2,700  Level FlightAware
06:54PM 33.7180 -83.9510 143° Southeast 207 238 2,700 -240 Level FlightAware
06:55PM 33.6920 -83.9320 149° Southeast 208 239 2,500 -360 Descending FlightAware
06:55PM 33.6700 -83.9190 154° Southeast 207 238 2,400 -420 Descending FlightAware
06:55PM 33.6570 -83.9140 162° South 166 191 2,200 -1,080 Descending FlightAware
06:56PM 33.6420 -83.9040 151° Southeast 150 173 1,700 -1,080 Descending FlightAware
06:56PM 33.6370 -83.8920 117° Southeast 128 147 1,500 -960 Descending FlightAware
06:57PM 33.6340 -83.8740 101° East 120 138 1,000 -720 Descending FlightAware
06:57PM 33.6330 -83.8500 93° East 115 132 700 -480 Descending FlightAware